sensor_id;sensor_type;location;lat;lon;timestamp;P1;durP1;ratioP1;P2;durP2;ratioP2
19521;SDS011;9905;52.126;5.596;2023-03-03T00:01:15;26.17;;;16.58;;
19521;SDS011;9905;52.126;5.596;2023-03-03T00:03:44;25.33;;;16.07;;
19521;SDS011;9905;52.126;5.596;2023-03-03T00:06:12;26.27;;;16.70;;
19521;SDS011;9905;52.126;5.596;2023-03-03T00:08:39;26.58;;;17.70;;
19521;SDS011;9905;52.126;5.596;2023-03-03T00:11:06;22.95;;;15.18;;
19521;SDS011;9905;52.126;5.596;2023-03-03T00:13:37;26.30;;;16.63;;
19521;SDS011;9905;52.126;5.596;2023-03-03T00:16:11;23.23;;;15.93;;
19521;SDS011;9905;52.126;5.596;2023-03-03T00:18:41;26.45;;;17.05;;
19521;SDS011;9905;52.126;5.596;2023-03-03T00:26:43;30.58;;;18.17;;
19521;SDS011;9905;52.126;5.596;2023-03-03T00:29:28;25.10;;;15.75;;
19521;SDS011;9905;52.126;5.596;2023-03-03T00:31:58;24.67;;;15.82;;
19521;SDS011;9905;52.126;5.596;2023-03-03T00:34:42;26.57;;;16.63;;
19521;SDS011;9905;52.126;5.596;2023-03-03T00:37:18;28.48;;;16.55;;
19521;SDS011;9905;52.126;5.596;2023-03-03T00:39:51;22.63;;;15.55;;
19521;SDS011;9905;52.126;5.596;2023-03-03T00:42:18;25.70;;;16.42;;
19521;SDS011;9905;52.126;5.596;2023-03-03T00:44:45;28.23;;;16.02;;
19521;SDS011;9905;52.126;5.596;2023-03-03T00:50:13;27.50;;;15.57;;
19521;SDS011;9905;52.126;5.596;2023-03-03T00:52:52;23.70;;;15.67;;
19521;SDS011;9905;52.126;5.596;2023-03-03T00:55:26;24.80;;;16.77;;
19521;SDS011;9905;52.126;5.596;2023-03-03T00:57:54;23.63;;;16.33;;
19521;SDS011;9905;52.126;5.596;2023-03-03T01:00:20;23.63;;;15.50;;
19521;SDS011;9905;52.126;5.596;2023-03-03T01:02:47;22.73;;;15.67;;
19521;SDS011;9905;52.126;5.596;2023-03-03T01:05:19;22.77;;;15.38;;
19521;SDS011;9905;52.126;5.596;2023-03-03T01:07:46;19.23;;;12.93;;
19521;SDS011;9905;52.126;5.596;2023-03-03T01:10:13;17.98;;;12.27;;
19521;SDS011;9905;52.126;5.596;2023-03-03T01:12:40;18.60;;;12.65;;
19521;SDS011;9905;52.126;5.596;2023-03-03T01:15:07;17.88;;;12.45;;
19521;SDS011;9905;52.126;5.596;2023-03-03T01:17:36;17.37;;;12.40;;
19521;SDS011;9905;52.126;5.596;2023-03-03T01:20:04;20.63;;;13.35;;
19521;SDS011;9905;52.126;5.596;2023-03-03T01:22:33;18.07;;;13.00;;
19521;SDS011;9905;52.126;5.596;2023-03-03T01:25:00;17.85;;;13.13;;
19521;SDS011;9905;52.126;5.596;2023-03-03T01:27:28;16.95;;;12.43;;
19521;SDS011;9905;52.126;5.596;2023-03-03T01:29:55;19.43;;;12.53;;
19521;SDS011;9905;52.126;5.596;2023-03-03T01:32:21;19.90;;;14.32;;
19521;SDS011;9905;52.126;5.596;2023-03-03T01:34:48;24.13;;;14.60;;
19521;SDS011;9905;52.126;5.596;2023-03-03T01:37:15;19.67;;;14.38;;
19521;SDS011;9905;52.126;5.596;2023-03-03T01:39:43;19.33;;;13.68;;
19521;SDS011;9905;52.126;5.596;2023-03-03T01:42:13;16.27;;;12.57;;
19521;SDS011;9905;52.126;5.596;2023-03-03T01:44:40;17.67;;;13.00;;
19521;SDS011;9905;52.126;5.596;2023-03-03T01:47:08;18.45;;;13.07;;
19521;SDS011;9905;52.126;5.596;2023-03-03T01:49:38;19.48;;;13.30;;
19521;SDS011;9905;52.126;5.596;2023-03-03T01:52:09;18.80;;;14.13;;
19521;SDS011;9905;52.126;5.596;2023-03-03T01:54:39;21.90;;;13.93;;
19521;SDS011;9905;52.126;5.596;2023-03-03T01:57:11;17.80;;;13.73;;
19521;SDS011;9905;52.126;5.596;2023-03-03T01:59:42;21.33;;;14.30;;
19521;SDS011;9905;52.126;5.596;2023-03-03T02:02:12;19.73;;;13.00;;
19521;SDS011;9905;52.126;5.596;2023-03-03T02:04:39;18.13;;;12.85;;
19521;SDS011;9905;52.126;5.596;2023-03-03T02:07:06;17.88;;;14.00;;
19521;SDS011;9905;52.126;5.596;2023-03-03T02:09:36;22.67;;;14.63;;
19521;SDS011;9905;52.126;5.596;2023-03-03T02:12:10;19.10;;;13.27;;
19521;SDS011;9905;52.126;5.596;2023-03-03T02:14:41;22.23;;;13.25;;
19521;SDS011;9905;52.126;5.596;2023-03-03T02:17:08;19.40;;;13.77;;
19521;SDS011;9905;52.126;5.596;2023-03-03T02:19:37;18.77;;;13.93;;
19521;SDS011;9905;52.126;5.596;2023-03-03T02:22:11;18.67;;;14.03;;
19521;SDS011;9905;52.126;5.596;2023-03-03T02:24:44;18.58;;;14.10;;
19521;SDS011;9905;52.126;5.596;2023-03-03T02:27:17;18.00;;;13.33;;
19521;SDS011;9905;52.126;5.596;2023-03-03T02:29:44;22.83;;;14.00;;
19521;SDS011;9905;52.126;5.596;2023-03-03T02:32:11;18.80;;;13.47;;
19521;SDS011;9905;52.126;5.596;2023-03-03T02:34:43;22.40;;;15.47;;
19521;SDS011;9905;52.126;5.596;2023-03-03T02:37:11;18.70;;;13.57;;
19521;SDS011;9905;52.126;5.596;2023-03-03T02:39:38;16.70;;;13.47;;
19521;SDS011;9905;52.126;5.596;2023-03-03T02:42:05;22.43;;;14.17;;
19521;SDS011;9905;52.126;5.596;2023-03-03T02:44:38;22.20;;;14.77;;
19521;SDS011;9905;52.126;5.596;2023-03-03T02:47:05;19.53;;;14.23;;
19521;SDS011;9905;52.126;5.596;2023-03-03T02:49:33;21.20;;;13.83;;
19521;SDS011;9905;52.126;5.596;2023-03-03T02:52:02;20.23;;;13.87;;
19521;SDS011;9905;52.126;5.596;2023-03-03T02:54:30;23.87;;;15.10;;
19521;SDS011;9905;52.126;5.596;2023-03-03T02:56:57;22.17;;;13.93;;
19521;SDS011;9905;52.126;5.596;2023-03-03T02:59:24;22.87;;;14.53;;
19521;SDS011;9905;52.126;5.596;2023-03-03T03:01:52;22.50;;;14.33;;
19521;SDS011;9905;52.126;5.596;2023-03-03T03:04:20;22.50;;;15.10;;
19521;SDS011;9905;52.126;5.596;2023-03-03T03:06:48;22.27;;;14.40;;
19521;SDS011;9905;52.126;5.596;2023-03-03T03:09:15;21.90;;;14.40;;
19521;SDS011;9905;52.126;5.596;2023-03-03T03:11:43;19.33;;;14.43;;
19521;SDS011;9905;52.126;5.596;2023-03-03T03:14:11;21.80;;;13.98;;
19521;SDS011;9905;52.126;5.596;2023-03-03T03:16:38;24.60;;;15.38;;
19521;SDS011;9905;52.126;5.596;2023-03-03T03:19:07;23.83;;;15.03;;
19521;SDS011;9905;52.126;5.596;2023-03-03T03:21:34;24.42;;;14.73;;
19521;SDS011;9905;52.126;5.596;2023-03-03T03:24:01;21.83;;;13.88;;
19521;SDS011;9905;52.126;5.596;2023-03-03T03:26:28;20.23;;;13.90;;
19521;SDS011;9905;52.126;5.596;2023-03-03T03:28:54;21.98;;;13.75;;
19521;SDS011;9905;52.126;5.596;2023-03-03T03:31:21;19.57;;;13.23;;
19521;SDS011;9905;52.126;5.596;2023-03-03T03:33:48;28.20;;;13.53;;
19521;SDS011;9905;52.126;5.596;2023-03-03T03:36:17;20.80;;;13.23;;
19521;SDS011;9905;52.126;5.596;2023-03-03T03:38:44;18.20;;;12.70;;
19521;SDS011;9905;52.126;5.596;2023-03-03T03:41:11;18.27;;;12.83;;
19521;SDS011;9905;52.126;5.596;2023-03-03T03:43:38;20.50;;;12.90;;
19521;SDS011;9905;52.126;5.596;2023-03-03T03:46:05;21.80;;;13.50;;
19521;SDS011;9905;52.126;5.596;2023-03-03T03:48:32;20.67;;;12.57;;
19521;SDS011;9905;52.126;5.596;2023-03-03T03:50:59;19.63;;;12.15;;
19521;SDS011;9905;52.126;5.596;2023-03-03T03:53:27;14.38;;;12.65;;
19521;SDS011;9905;52.126;5.596;2023-03-03T03:55:55;20.25;;;13.85;;
19521;SDS011;9905;52.126;5.596;2023-03-03T03:58:22;17.77;;;12.88;;
19521;SDS011;9905;52.126;5.596;2023-03-03T04:00:48;19.53;;;12.60;;
19521;SDS011;9905;52.126;5.596;2023-03-03T04:03:15;18.83;;;12.37;;
19521;SDS011;9905;52.126;5.596;2023-03-03T04:05:42;21.57;;;12.60;;
19521;SDS011;9905;52.126;5.596;2023-03-03T04:08:09;18.45;;;12.90;;
19521;SDS011;9905;52.126;5.596;2023-03-03T04:10:37;15.43;;;12.03;;
19521;SDS011;9905;52.126;5.596;2023-03-03T04:13:04;16.07;;;12.27;;
19521;SDS011;9905;52.126;5.596;2023-03-03T04:15:31;15.93;;;12.23;;
19521;SDS011;9905;52.126;5.596;2023-03-03T04:17:58;17.63;;;12.07;;
19521;SDS011;9905;52.126;5.596;2023-03-03T04:20:25;17.27;;;11.27;;
19521;SDS011;9905;52.126;5.596;2023-03-03T04:22:52;19.27;;;12.52;;
19521;SDS011;9905;52.126;5.596;2023-03-03T04:25:19;16.65;;;11.57;;
19521;SDS011;9905;52.126;5.596;2023-03-03T04:27:47;17.13;;;11.23;;
19521;SDS011;9905;52.126;5.596;2023-03-03T04:30:14;16.30;;;11.80;;
19521;SDS011;9905;52.126;5.596;2023-03-03T04:32:41;14.43;;;11.15;;
19521;SDS011;9905;52.126;5.596;2023-03-03T04:35:08;15.57;;;12.45;;
19521;SDS011;9905;52.126;5.596;2023-03-03T04:37:36;16.63;;;11.88;;
19521;SDS011;9905;52.126;5.596;2023-03-03T04:40:04;15.07;;;12.00;;
19521;SDS011;9905;52.126;5.596;2023-03-03T04:42:33;13.93;;;11.02;;
19521;SDS011;9905;52.126;5.596;2023-03-03T04:45:02;14.73;;;11.75;;
19521;SDS011;9905;52.126;5.596;2023-03-03T04:47:29;17.08;;;11.15;;
19521;SDS011;9905;52.126;5.596;2023-03-03T04:49:56;16.75;;;11.75;;
19521;SDS011;9905;52.126;5.596;2023-03-03T04:52:23;14.10;;;11.73;;
19521;SDS011;9905;52.126;5.596;2023-03-03T04:54:49;15.32;;;11.77;;
19521;SDS011;9905;52.126;5.596;2023-03-03T04:57:16;12.30;;;10.98;;
19521;SDS011;9905;52.126;5.596;2023-03-03T04:59:43;20.02;;;12.45;;
19521;SDS011;9905;52.126;5.596;2023-03-03T05:02:11;14.77;;;11.93;;
19521;SDS011;9905;52.126;5.596;2023-03-03T05:04:38;14.90;;;11.32;;
19521;SDS011;9905;52.126;5.596;2023-03-03T05:07:05;16.25;;;11.95;;
19521;SDS011;9905;52.126;5.596;2023-03-03T05:09:32;17.67;;;11.93;;
19521;SDS011;9905;52.126;5.596;2023-03-03T05:11:59;12.70;;;11.40;;
19521;SDS011;9905;52.126;5.596;2023-03-03T05:14:26;17.30;;;12.55;;
19521;SDS011;9905;52.126;5.596;2023-03-03T05:16:53;19.47;;;13.13;;
19521;SDS011;9905;52.126;5.596;2023-03-03T05:19:21;15.95;;;12.77;;
19521;SDS011;9905;52.126;5.596;2023-03-03T05:21:48;19.83;;;13.27;;
19521;SDS011;9905;52.126;5.596;2023-03-03T05:24:14;16.83;;;12.65;;
19521;SDS011;9905;52.126;5.596;2023-03-03T05:26:41;19.20;;;12.73;;
19521;SDS011;9905;52.126;5.596;2023-03-03T05:29:08;18.55;;;12.27;;
19521;SDS011;9905;52.126;5.596;2023-03-03T05:31:35;15.57;;;12.10;;
19521;SDS011;9905;52.126;5.596;2023-03-03T05:34:02;18.50;;;12.50;;
19521;SDS011;9905;52.126;5.596;2023-03-03T05:36:30;15.77;;;11.60;;
19521;SDS011;9905;52.126;5.596;2023-03-03T05:38:56;20.40;;;12.18;;
19521;SDS011;9905;52.126;5.596;2023-03-03T05:41:23;15.17;;;11.93;;
19521;SDS011;9905;52.126;5.596;2023-03-03T05:43:50;13.30;;;11.37;;
19521;SDS011;9905;52.126;5.596;2023-03-03T05:46:17;14.15;;;11.43;;
19521;SDS011;9905;52.126;5.596;2023-03-03T05:48:44;12.70;;;11.43;;
19521;SDS011;9905;52.126;5.596;2023-03-03T05:51:10;18.83;;;12.52;;
19521;SDS011;9905;52.126;5.596;2023-03-03T05:53:39;18.10;;;12.38;;
19521;SDS011;9905;52.126;5.596;2023-03-03T05:56:06;21.40;;;12.73;;
19521;SDS011;9905;52.126;5.596;2023-03-03T05:58:33;15.20;;;11.90;;
19521;SDS011;9905;52.126;5.596;2023-03-03T06:00:59;14.67;;;13.07;;
19521;SDS011;9905;52.126;5.596;2023-03-03T06:03:26;15.63;;;12.32;;
19521;SDS011;9905;52.126;5.596;2023-03-03T06:05:53;13.85;;;11.63;;
19521;SDS011;9905;52.126;5.596;2023-03-03T06:08:20;12.20;;;10.93;;
19521;SDS011;9905;52.126;5.596;2023-03-03T06:10:48;13.32;;;11.18;;
19521;SDS011;9905;52.126;5.596;2023-03-03T06:13:15;12.75;;;11.38;;
19521;SDS011;9905;52.126;5.596;2023-03-03T06:15:41;13.65;;;11.07;;
19521;SDS011;9905;52.126;5.596;2023-03-03T06:18:08;16.65;;;12.35;;
19521;SDS011;9905;52.126;5.596;2023-03-03T06:20:35;14.32;;;12.00;;
19521;SDS011;9905;52.126;5.596;2023-03-03T06:23:02;15.52;;;12.25;;
19521;SDS011;9905;52.126;5.596;2023-03-03T06:25:29;15.63;;;12.00;;
19521;SDS011;9905;52.126;5.596;2023-03-03T06:28:01;20.10;;;12.68;;
19521;SDS011;9905;52.126;5.596;2023-03-03T06:30:27;20.40;;;12.87;;
19521;SDS011;9905;52.126;5.596;2023-03-03T06:32:54;19.40;;;13.40;;
19521;SDS011;9905;52.126;5.596;2023-03-03T06:35:21;18.13;;;12.93;;
19521;SDS011;9905;52.126;5.596;2023-03-03T06:37:48;18.00;;;12.57;;
19521;SDS011;9905;52.126;5.596;2023-03-03T06:40:15;21.55;;;13.65;;
19521;SDS011;9905;52.126;5.596;2023-03-03T06:42:42;18.83;;;12.52;;
19521;SDS011;9905;52.126;5.596;2023-03-03T06:45:10;20.00;;;13.20;;
19521;SDS011;9905;52.126;5.596;2023-03-03T06:47:37;17.08;;;12.55;;
19521;SDS011;9905;52.126;5.596;2023-03-03T06:50:05;18.63;;;13.23;;
19521;SDS011;9905;52.126;5.596;2023-03-03T06:52:32;21.27;;;12.82;;
19521;SDS011;9905;52.126;5.596;2023-03-03T06:54:59;23.05;;;13.93;;
19521;SDS011;9905;52.126;5.596;2023-03-03T06:57:35;16.88;;;11.90;;
19521;SDS011;9905;52.126;5.596;2023-03-03T07:00:09;16.52;;;12.15;;
19521;SDS011;9905;52.126;5.596;2023-03-03T07:02:42;18.27;;;13.02;;
19521;SDS011;9905;52.126;5.596;2023-03-03T07:05:10;17.90;;;12.25;;
19521;SDS011;9905;52.126;5.596;2023-03-03T07:07:40;15.55;;;12.50;;
19521;SDS011;9905;52.126;5.596;2023-03-03T07:10:11;19.55;;;13.20;;
19521;SDS011;9905;52.126;5.596;2023-03-03T07:12:45;18.17;;;12.95;;
19521;SDS011;9905;52.126;5.596;2023-03-03T07:15:13;16.40;;;13.77;;
19521;SDS011;9905;52.126;5.596;2023-03-03T07:17:45;21.90;;;13.60;;
19521;SDS011;9905;52.126;5.596;2023-03-03T07:20:14;19.27;;;13.68;;
19521;SDS011;9905;52.126;5.596;2023-03-03T07:22:45;18.10;;;13.57;;
19521;SDS011;9905;52.126;5.596;2023-03-03T07:25:18;18.77;;;13.20;;
19521;SDS011;9905;52.126;5.596;2023-03-03T07:27:49;14.30;;;12.65;;
19521;SDS011;9905;52.126;5.596;2023-03-03T07:30:22;19.70;;;13.00;;
19521;SDS011;9905;52.126;5.596;2023-03-03T07:32:51;18.13;;;13.40;;
19521;SDS011;9905;52.126;5.596;2023-03-03T07:35:27;13.70;;;12.15;;
19521;SDS011;9905;52.126;5.596;2023-03-03T07:38:02;16.75;;;13.13;;
19521;SDS011;9905;52.126;5.596;2023-03-03T07:40:37;20.10;;;13.48;;
19521;SDS011;9905;52.126;5.596;2023-03-03T07:45:56;19.58;;;13.13;;
19521;SDS011;9905;52.126;5.596;2023-03-03T07:48:29;18.63;;;13.50;;
19521;SDS011;9905;52.126;5.596;2023-03-03T07:51:01;19.50;;;12.65;;
19521;SDS011;9905;52.126;5.596;2023-03-03T07:53:30;21.58;;;13.88;;
19521;SDS011;9905;52.126;5.596;2023-03-03T07:56:01;17.20;;;13.32;;
19521;SDS011;9905;52.126;5.596;2023-03-03T07:58:32;23.10;;;13.45;;
19521;SDS011;9905;52.126;5.596;2023-03-03T08:04:09;19.05;;;13.23;;
19521;SDS011;9905;52.126;5.596;2023-03-03T08:06:43;23.42;;;13.90;;
19521;SDS011;9905;52.126;5.596;2023-03-03T08:09:29;24.05;;;13.63;;
19521;SDS011;9905;52.126;5.596;2023-03-03T08:12:19;22.30;;;13.40;;
19521;SDS011;9905;52.126;5.596;2023-03-03T08:15:18;21.70;;;13.77;;
19521;SDS011;9905;52.126;5.596;2023-03-03T08:17:46;19.20;;;11.60;;
19521;SDS011;9905;52.126;5.596;2023-03-03T08:20:34;26.63;;;13.95;;
19521;SDS011;9905;52.126;5.596;2023-03-03T08:23:08;18.77;;;13.05;;
19521;SDS011;9905;52.126;5.596;2023-03-03T08:25:35;20.98;;;12.75;;
19521;SDS011;9905;52.126;5.596;2023-03-03T08:28:03;17.60;;;13.07;;
19521;SDS011;9905;52.126;5.596;2023-03-03T08:30:30;24.40;;;14.52;;
19521;SDS011;9905;52.126;5.596;2023-03-03T08:32:57;24.05;;;14.00;;
19521;SDS011;9905;52.126;5.596;2023-03-03T08:35:23;18.88;;;12.60;;
19521;SDS011;9905;52.126;5.596;2023-03-03T08:37:52;17.88;;;13.18;;
19521;SDS011;9905;52.126;5.596;2023-03-03T08:40:18;19.92;;;13.35;;
19521;SDS011;9905;52.126;5.596;2023-03-03T08:42:45;18.70;;;13.60;;
19521;SDS011;9905;52.126;5.596;2023-03-03T08:45:12;18.23;;;13.60;;
19521;SDS011;9905;52.126;5.596;2023-03-03T08:47:40;16.15;;;12.90;;
19521;SDS011;9905;52.126;5.596;2023-03-03T08:50:07;17.80;;;13.25;;
19521;SDS011;9905;52.126;5.596;2023-03-03T08:52:35;15.95;;;13.68;;
19521;SDS011;9905;52.126;5.596;2023-03-03T08:55:03;18.40;;;12.55;;
19521;SDS011;9905;52.126;5.596;2023-03-03T08:57:30;20.88;;;12.93;;
19521;SDS011;9905;52.126;5.596;2023-03-03T08:59:56;19.70;;;13.32;;
19521;SDS011;9905;52.126;5.596;2023-03-03T09:02:23;18.58;;;11.98;;
19521;SDS011;9905;52.126;5.596;2023-03-03T09:04:50;21.52;;;12.90;;
19521;SDS011;9905;52.126;5.596;2023-03-03T09:07:17;18.58;;;11.80;;
19521;SDS011;9905;52.126;5.596;2023-03-03T09:09:43;14.93;;;11.68;;
19521;SDS011;9905;52.126;5.596;2023-03-03T09:12:14;18.20;;;12.45;;
19521;SDS011;9905;52.126;5.596;2023-03-03T09:14:42;16.30;;;11.35;;
19521;SDS011;9905;52.126;5.596;2023-03-03T09:17:17;15.48;;;11.20;;
19521;SDS011;9905;52.126;5.596;2023-03-03T09:19:49;11.27;;;10.00;;
19521;SDS011;9905;52.126;5.596;2023-03-03T09:22:17;10.95;;;9.85;;
19521;SDS011;9905;52.126;5.596;2023-03-03T09:24:45;16.75;;;11.65;;
19521;SDS011;9905;52.126;5.596;2023-03-03T09:27:16;11.45;;;9.65;;
19521;SDS011;9905;52.126;5.596;2023-03-03T09:29:52;11.60;;;9.48;;
19521;SDS011;9905;52.126;5.596;2023-03-03T09:32:29;11.70;;;9.63;;
19521;SDS011;9905;52.126;5.596;2023-03-03T09:34:59;11.65;;;9.63;;
19521;SDS011;9905;52.126;5.596;2023-03-03T09:37:27;11.77;;;10.15;;
19521;SDS011;9905;52.126;5.596;2023-03-03T09:39:56;10.27;;;8.77;;
19521;SDS011;9905;52.126;5.596;2023-03-03T09:42:29;11.77;;;9.52;;
19521;SDS011;9905;52.126;5.596;2023-03-03T09:45:19;10.55;;;9.00;;
19521;SDS011;9905;52.126;5.596;2023-03-03T09:51:12;9.68;;;8.68;;
19521;SDS011;9905;52.126;5.596;2023-03-03T09:56:38;11.05;;;9.63;;
19521;SDS011;9905;52.126;5.596;2023-03-03T09:59:13;15.20;;;9.88;;
19521;SDS011;9905;52.126;5.596;2023-03-03T10:01:54;12.43;;;9.60;;
19521;SDS011;9905;52.126;5.596;2023-03-03T10:04:41;10.43;;;9.15;;
19521;SDS011;9905;52.126;5.596;2023-03-03T10:07:26;9.02;;;8.20;;
19521;SDS011;9905;52.126;5.596;2023-03-03T10:10:14;13.50;;;8.70;;
19521;SDS011;9905;52.126;5.596;2023-03-03T10:12:54;9.55;;;8.27;;
19521;SDS011;9905;52.126;5.596;2023-03-03T10:15:30;10.35;;;8.75;;
19521;SDS011;9905;52.126;5.596;2023-03-03T10:18:09;8.35;;;7.57;;
19521;SDS011;9905;52.126;5.596;2023-03-03T10:20:45;8.45;;;7.57;;
19521;SDS011;9905;52.126;5.596;2023-03-03T10:23:27;9.32;;;7.28;;
19521;SDS011;9905;52.126;5.596;2023-03-03T10:26:15;11.82;;;7.78;;
19521;SDS011;9905;52.126;5.596;2023-03-03T10:28:52;8.23;;;7.43;;
19521;SDS011;9905;52.126;5.596;2023-03-03T10:31:38;8.65;;;7.90;;
19521;SDS011;9905;52.126;5.596;2023-03-03T10:34:21;8.48;;;7.50;;
19521;SDS011;9905;52.126;5.596;2023-03-03T10:37:00;7.93;;;7.10;;
19521;SDS011;9905;52.126;5.596;2023-03-03T10:39:43;7.88;;;7.30;;
19521;SDS011;9905;52.126;5.596;2023-03-03T10:42:29;8.50;;;6.80;;
19521;SDS011;9905;52.126;5.596;2023-03-03T10:45:15;7.90;;;7.28;;
19521;SDS011;9905;52.126;5.596;2023-03-03T10:50:53;11.52;;;7.07;;
19521;SDS011;9905;52.126;5.596;2023-03-03T10:53:26;7.72;;;6.75;;
19521;SDS011;9905;52.126;5.596;2023-03-03T10:56:03;7.60;;;6.82;;
19521;SDS011;9905;52.126;5.596;2023-03-03T10:58:49;9.60;;;6.60;;
19521;SDS011;9905;52.126;5.596;2023-03-03T11:01:25;7.35;;;6.22;;
19521;SDS011;9905;52.126;5.596;2023-03-03T11:06:55;5.72;;;5.25;;
19521;SDS011;9905;52.126;5.596;2023-03-03T11:09:37;5.70;;;5.30;;
19521;SDS011;9905;52.126;5.596;2023-03-03T11:12:16;5.40;;;4.85;;
19521;SDS011;9905;52.126;5.596;2023-03-03T11:14:52;6.20;;;4.93;;
19521;SDS011;9905;52.126;5.596;2023-03-03T11:17:31;5.88;;;5.47;;
19521;SDS011;9905;52.126;5.596;2023-03-03T11:20:23;5.30;;;4.85;;
19521;SDS011;9905;52.126;5.596;2023-03-03T11:23:01;7.32;;;4.93;;
19521;SDS011;9905;52.126;5.596;2023-03-03T11:25:45;5.32;;;4.82;;
19521;SDS011;9905;52.126;5.596;2023-03-03T11:28:22;4.68;;;4.38;;
19521;SDS011;9905;52.126;5.596;2023-03-03T11:31:12;5.80;;;5.15;;
19521;SDS011;9905;52.126;5.596;2023-03-03T11:33:46;4.25;;;3.95;;
19521;SDS011;9905;52.126;5.596;2023-03-03T11:36:24;4.63;;;4.22;;
19521;SDS011;9905;52.126;5.596;2023-03-03T11:38:56;4.10;;;3.90;;
19521;SDS011;9905;52.126;5.596;2023-03-03T11:41:32;4.35;;;3.88;;
19521;SDS011;9905;52.126;5.596;2023-03-03T11:44:04;4.63;;;4.28;;
19521;SDS011;9905;52.126;5.596;2023-03-03T11:46:37;4.28;;;4.03;;
19521;SDS011;9905;52.126;5.596;2023-03-03T11:49:08;4.50;;;4.20;;
19521;SDS011;9905;52.126;5.596;2023-03-03T11:51:45;4.97;;;4.65;;
19521;SDS011;9905;52.126;5.596;2023-03-03T11:54:19;4.65;;;4.22;;
19521;SDS011;9905;52.126;5.596;2023-03-03T11:56:50;4.60;;;4.20;;
19521;SDS011;9905;52.126;5.596;2023-03-03T11:59:37;5.15;;;3.70;;
19521;SDS011;9905;52.126;5.596;2023-03-03T12:02:28;3.90;;;3.70;;
19521;SDS011;9905;52.126;5.596;2023-03-03T12:05:04;4.55;;;4.20;;
19521;SDS011;9905;52.126;5.596;2023-03-03T12:07:39;4.05;;;3.85;;
19521;SDS011;9905;52.126;5.596;2023-03-03T12:10:16;4.13;;;3.78;;
19521;SDS011;9905;52.126;5.596;2023-03-03T12:12:50;3.97;;;3.78;;
19521;SDS011;9905;52.126;5.596;2023-03-03T12:15:26;4.00;;;3.60;;
19521;SDS011;9905;52.126;5.596;2023-03-03T12:18:06;3.00;;;2.80;;
19521;SDS011;9905;52.126;5.596;2023-03-03T12:21:00;3.25;;;3.05;;
19521;SDS011;9905;52.126;5.596;2023-03-03T12:23:51;2.88;;;2.75;;
19521;SDS011;9905;52.126;5.596;2023-03-03T12:26:31;4.43;;;3.13;;
19521;SDS011;9905;52.126;5.596;2023-03-03T12:29:10;2.72;;;2.63;;
19521;SDS011;9905;52.126;5.596;2023-03-03T12:31:48;3.25;;;2.60;;
19521;SDS011;9905;52.126;5.596;2023-03-03T12:34:21;2.65;;;2.55;;
19521;SDS011;9905;52.126;5.596;2023-03-03T12:37:02;2.65;;;2.47;;
19521;SDS011;9905;52.126;5.596;2023-03-03T12:39:44;2.55;;;2.45;;
19521;SDS011;9905;52.126;5.596;2023-03-03T12:42:21;4.47;;;2.47;;
19521;SDS011;9905;52.126;5.596;2023-03-03T12:44:58;2.47;;;2.38;;
19521;SDS011;9905;52.126;5.596;2023-03-03T12:47:34;2.30;;;2.10;;
19521;SDS011;9905;52.126;5.596;2023-03-03T12:50:18;2.70;;;2.33;;
19521;SDS011;9905;52.126;5.596;2023-03-03T12:52:53;2.25;;;2.15;;
19521;SDS011;9905;52.126;5.596;2023-03-03T12:55:32;2.95;;;2.75;;
19521;SDS011;9905;52.126;5.596;2023-03-03T12:58:10;3.50;;;2.72;;
19521;SDS011;9905;52.126;5.596;2023-03-03T13:00:48;2.42;;;2.33;;
19521;SDS011;9905;52.126;5.596;2023-03-03T13:03:21;2.35;;;2.22;;
19521;SDS011;9905;52.126;5.596;2023-03-03T13:06:03;2.53;;;2.42;;
19521;SDS011;9905;52.126;5.596;2023-03-03T13:08:41;2.40;;;2.30;;
19521;SDS011;9905;52.126;5.596;2023-03-03T13:11:24;2.70;;;2.50;;
19521;SDS011;9905;52.126;5.596;2023-03-03T13:14:12;3.03;;;2.70;;
19521;SDS011;9905;52.126;5.596;2023-03-03T13:16:48;2.30;;;2.17;;
19521;SDS011;9905;52.126;5.596;2023-03-03T13:19:24;2.60;;;2.40;;
19521;SDS011;9905;52.126;5.596;2023-03-03T13:21:58;3.30;;;2.42;;
19521;SDS011;9905;52.126;5.596;2023-03-03T13:24:34;2.92;;;2.72;;
19521;SDS011;9905;52.126;5.596;2023-03-03T13:27:09;2.55;;;2.42;;
19521;SDS011;9905;52.126;5.596;2023-03-03T13:29:39;2.50;;;2.40;;
19521;SDS011;9905;52.126;5.596;2023-03-03T13:32:10;2.33;;;2.13;;
19521;SDS011;9905;52.126;5.596;2023-03-03T13:34:42;2.33;;;2.22;;
19521;SDS011;9905;52.126;5.596;2023-03-03T13:37:18;2.33;;;2.13;;
19521;SDS011;9905;52.126;5.596;2023-03-03T13:39:51;2.25;;;2.15;;
19521;SDS011;9905;52.126;5.596;2023-03-03T13:42:24;2.50;;;2.40;;
19521;SDS011;9905;52.126;5.596;2023-03-03T13:44:54;2.35;;;2.25;;
19521;SDS011;9905;52.126;5.596;2023-03-03T13:47:23;3.25;;;2.10;;
19521;SDS011;9905;52.126;5.596;2023-03-03T13:50:03;2.72;;;2.53;;
19521;SDS011;9905;52.126;5.596;2023-03-03T13:52:43;2.63;;;2.50;;
19521;SDS011;9905;52.126;5.596;2023-03-03T13:55:19;2.40;;;2.30;;
19521;SDS011;9905;52.126;5.596;2023-03-03T13:57:56;2.28;;;2.17;;
19521;SDS011;9905;52.126;5.596;2023-03-03T14:00:34;2.58;;;2.45;;
19521;SDS011;9905;52.126;5.596;2023-03-03T14:03:20;2.60;;;2.50;;
19521;SDS011;9905;52.126;5.596;2023-03-03T14:06:03;2.40;;;2.30;;
19521;SDS011;9905;52.126;5.596;2023-03-03T14:08:43;2.53;;;2.42;;
19521;SDS011;9905;52.126;5.596;2023-03-03T14:11:22;2.38;;;2.28;;
19521;SDS011;9905;52.126;5.596;2023-03-03T14:13:57;2.80;;;2.60;;
19521;SDS011;9905;52.126;5.596;2023-03-03T14:16:34;3.20;;;2.92;;
19521;SDS011;9905;52.126;5.596;2023-03-03T14:19:09;2.92;;;2.72;;
19521;SDS011;9905;52.126;5.596;2023-03-03T14:21:42;2.88;;;2.78;;
19521;SDS011;9905;52.126;5.596;2023-03-03T14:24:15;2.67;;;2.58;;
19521;SDS011;9905;52.126;5.596;2023-03-03T14:26:46;2.88;;;2.78;;
19521;SDS011;9905;52.126;5.596;2023-03-03T14:31:57;3.03;;;2.78;;
19521;SDS011;9905;52.126;5.596;2023-03-03T14:34:33;3.28;;;3.08;;
19521;SDS011;9905;52.126;5.596;2023-03-03T14:37:20;3.50;;;3.17;;
19521;SDS011;9905;52.126;5.596;2023-03-03T14:39:49;3.25;;;2.60;;
19521;SDS011;9905;52.126;5.596;2023-03-03T14:42:29;3.10;;;2.90;;
19521;SDS011;9905;52.126;5.596;2023-03-03T14:44:59;3.10;;;2.90;;
19521;SDS011;9905;52.126;5.596;2023-03-03T14:47:39;3.47;;;3.17;;
19521;SDS011;9905;52.126;5.596;2023-03-03T14:50:27;2.85;;;2.70;;
19521;SDS011;9905;52.126;5.596;2023-03-03T14:53:03;2.92;;;2.83;;
19521;SDS011;9905;52.126;5.596;2023-03-03T14:55:35;2.65;;;2.53;;
19521;SDS011;9905;52.126;5.596;2023-03-03T14:58:06;3.08;;;2.88;;
19521;SDS011;9905;52.126;5.596;2023-03-03T15:00:50;2.60;;;2.42;;
19521;SDS011;9905;52.126;5.596;2023-03-03T15:03:43;2.63;;;2.30;;
19521;SDS011;9905;52.126;5.596;2023-03-03T15:06:17;2.80;;;2.60;;
19521;SDS011;9905;52.126;5.596;2023-03-03T15:09:27;3.97;;;2.45;;
19521;SDS011;9905;52.126;5.596;2023-03-03T15:11:59;2.53;;;2.40;;
19521;SDS011;9905;52.126;5.596;2023-03-03T15:14:28;2.40;;;2.30;;
19521;SDS011;9905;52.126;5.596;2023-03-03T15:17:11;2.92;;;2.65;;
19521;SDS011;9905;52.126;5.596;2023-03-03T15:19:58;2.47;;;2.38;;
19521;SDS011;9905;52.126;5.596;2023-03-03T15:22:47;2.53;;;2.42;;
19521;SDS011;9905;52.126;5.596;2023-03-03T15:25:17;2.33;;;2.22;;
19521;SDS011;9905;52.126;5.596;2023-03-03T15:27:52;2.38;;;2.28;;
19521;SDS011;9905;52.126;5.596;2023-03-03T15:30:31;2.03;;;1.98;;
19521;SDS011;9905;52.126;5.596;2023-03-03T15:33:09;2.22;;;2.20;;
19521;SDS011;9905;52.126;5.596;2023-03-03T15:35:45;2.22;;;2.13;;
19521;SDS011;9905;52.126;5.596;2023-03-03T15:38:17;1.95;;;1.95;;
19521;SDS011;9905;52.126;5.596;2023-03-03T15:40:53;2.15;;;2.00;;
19521;SDS011;9905;52.126;5.596;2023-03-03T15:43:27;2.03;;;1.92;;